sensor_id;sensor_type;location;lat;lon;timestamp;P1;durP1;ratioP1;P2;durP2;ratioP2
78668;SDS011;67984;45.118;20.724;2023-07-22T00:02:35;8.77;;;5.47;;
78668;SDS011;67984;45.118;20.724;2023-07-22T00:12:36;9.47;;;6.13;;
78668;SDS011;67984;45.118;20.724;2023-07-22T00:22:40;11.87;;;5.07;;
78668;SDS011;67984;45.118;20.724;2023-07-22T00:32:41;11.05;;;5.75;;
78668;SDS011;67984;45.118;20.724;2023-07-22T00:42:41;14.32;;;6.22;;
78668;SDS011;67984;45.118;20.724;2023-07-22T00:52:43;9.00;;;4.32;;
78668;SDS011;67984;45.118;20.724;2023-07-22T01:03:03;12.85;;;6.93;;
78668;SDS011;67984;45.118;20.724;2023-07-22T01:13:04;15.05;;;6.63;;
78668;SDS011;67984;45.118;20.724;2023-07-22T01:23:04;8.63;;;5.50;;
78668;SDS011;67984;45.118;20.724;2023-07-22T01:33:07;11.52;;;5.28;;
78668;SDS011;67984;45.118;20.724;2023-07-22T01:43:09;7.97;;;4.78;;
78668;SDS011;67984;45.118;20.724;2023-07-22T01:53:10;7.47;;;4.33;;
78668;SDS011;67984;45.118;20.724;2023-07-22T02:03:10;9.55;;;4.50;;
78668;SDS011;67984;45.118;20.724;2023-07-22T02:13:11;15.30;;;4.97;;
78668;SDS011;67984;45.118;20.724;2023-07-22T02:23:12;10.25;;;4.78;;
78668;SDS011;67984;45.118;20.724;2023-07-22T02:33:13;15.07;;;5.27;;
78668;SDS011;67984;45.118;20.724;2023-07-22T02:43:14;8.95;;;5.05;;
78668;SDS011;67984;45.118;20.724;2023-07-22T02:53:15;8.48;;;4.40;;
78668;SDS011;67984;45.118;20.724;2023-07-22T03:03:16;14.47;;;4.30;;
78668;SDS011;67984;45.118;20.724;2023-07-22T03:13:17;10.57;;;5.13;;
78668;SDS011;67984;45.118;20.724;2023-07-22T03:23:18;19.13;;;7.35;;
78668;SDS011;67984;45.118;20.724;2023-07-22T03:33:19;10.32;;;5.60;;
78668;SDS011;67984;45.118;20.724;2023-07-22T03:43:20;9.00;;;5.77;;
78668;SDS011;67984;45.118;20.724;2023-07-22T03:53:21;12.27;;;6.10;;
78668;SDS011;67984;45.118;20.724;2023-07-22T04:03:40;14.57;;;7.53;;
78668;SDS011;67984;45.118;20.724;2023-07-22T04:13:41;13.93;;;6.60;;
78668;SDS011;67984;45.118;20.724;2023-07-22T04:23:42;11.95;;;6.45;;
78668;SDS011;67984;45.118;20.724;2023-07-22T04:33:43;17.00;;;8.07;;
78668;SDS011;67984;45.118;20.724;2023-07-22T04:43:44;10.33;;;5.83;;
78668;SDS011;67984;45.118;20.724;2023-07-22T04:53:44;10.10;;;6.77;;
78668;SDS011;67984;45.118;20.724;2023-07-22T05:03:45;12.17;;;5.70;;
78668;SDS011;67984;45.118;20.724;2023-07-22T05:13:46;10.20;;;6.17;;
78668;SDS011;67984;45.118;20.724;2023-07-22T05:23:46;13.73;;;5.57;;
78668;SDS011;67984;45.118;20.724;2023-07-22T05:33:47;17.17;;;6.80;;
78668;SDS011;67984;45.118;20.724;2023-07-22T05:43:48;15.57;;;6.70;;
78668;SDS011;67984;45.118;20.724;2023-07-22T05:53:49;11.67;;;6.50;;
78668;SDS011;67984;45.118;20.724;2023-07-22T06:03:50;11.83;;;6.77;;
78668;SDS011;67984;45.118;20.724;2023-07-22T06:13:52;10.82;;;6.80;;
78668;SDS011;67984;45.118;20.724;2023-07-22T06:23:53;14.03;;;6.70;;
78668;SDS011;67984;45.118;20.724;2023-07-22T06:33:53;8.20;;;5.70;;
78668;SDS011;67984;45.118;20.724;2023-07-22T06:43:54;10.17;;;4.87;;
78668;SDS011;67984;45.118;20.724;2023-07-22T06:53:55;9.00;;;6.18;;
78668;SDS011;67984;45.118;20.724;2023-07-22T07:03:56;11.30;;;7.40;;
78668;SDS011;67984;45.118;20.724;2023-07-22T07:13:57;10.90;;;6.17;;
78668;SDS011;67984;45.118;20.724;2023-07-22T07:23:58;8.88;;;5.00;;
78668;SDS011;67984;45.118;20.724;2023-07-22T07:33:59;19.90;;;5.82;;
78668;SDS011;67984;45.118;20.724;2023-07-22T07:43:59;9.17;;;4.60;;
78668;SDS011;67984;45.118;20.724;2023-07-22T07:54:00;6.50;;;5.03;;
78668;SDS011;67984;45.118;20.724;2023-07-22T08:04:01;8.68;;;5.15;;
78668;SDS011;67984;45.118;20.724;2023-07-22T08:14:02;9.50;;;5.53;;
78668;SDS011;67984;45.118;20.724;2023-07-22T08:24:03;6.20;;;4.75;;
78668;SDS011;67984;45.118;20.724;2023-07-22T08:34:04;6.18;;;5.45;;
78668;SDS011;67984;45.118;20.724;2023-07-22T08:44:04;10.27;;;4.80;;
78668;SDS011;67984;45.118;20.724;2023-07-22T08:54:08;4.72;;;4.00;;
78668;SDS011;67984;45.118;20.724;2023-07-22T09:04:09;10.35;;;3.85;;
78668;SDS011;67984;45.118;20.724;2023-07-22T09:14:10;9.73;;;5.63;;
78668;SDS011;67984;45.118;20.724;2023-07-22T09:24:21;11.52;;;4.78;;
78668;SDS011;67984;45.118;20.724;2023-07-22T09:34:23;8.32;;;5.28;;
78668;SDS011;67984;45.118;20.724;2023-07-22T09:44:31;6.97;;;4.07;;
78668;SDS011;67984;45.118;20.724;2023-07-22T09:54:37;4.05;;;3.67;;
78668;SDS011;67984;45.118;20.724;2023-07-22T10:04:47;6.03;;;4.30;;
78668;SDS011;67984;45.118;20.724;2023-07-22T10:14:51;5.72;;;4.28;;
78668;SDS011;67984;45.118;20.724;2023-07-22T10:24:52;7.38;;;3.60;;
78668;SDS011;67984;45.118;20.724;2023-07-22T10:34:54;7.80;;;4.22;;
78668;SDS011;67984;45.118;20.724;2023-07-22T10:44:55;4.20;;;3.83;;
78668;SDS011;67984;45.118;20.724;2023-07-22T10:55:00;6.93;;;4.45;;
78668;SDS011;67984;45.118;20.724;2023-07-22T11:05:02;6.57;;;4.43;;
78668;SDS011;67984;45.118;20.724;2023-07-22T11:15:04;4.97;;;3.28;;
78668;SDS011;67984;45.118;20.724;2023-07-22T11:25:06;3.95;;;2.70;;
78668;SDS011;67984;45.118;20.724;2023-07-22T11:35:08;2.72;;;2.50;;
78668;SDS011;67984;45.118;20.724;2023-07-22T11:45:08;7.28;;;4.22;;
78668;SDS011;67984;45.118;20.724;2023-07-22T11:55:10;5.32;;;3.65;;
78668;SDS011;67984;45.118;20.724;2023-07-22T12:05:12;4.50;;;3.22;;
78668;SDS011;67984;45.118;20.724;2023-07-22T12:15:21;4.40;;;3.78;;
78668;SDS011;67984;45.118;20.724;2023-07-22T12:25:24;4.20;;;3.90;;
78668;SDS011;67984;45.118;20.724;2023-07-22T12:35:25;4.70;;;4.22;;
78668;SDS011;67984;45.118;20.724;2023-07-22T12:45:25;4.83;;;4.00;;
78668;SDS011;67984;45.118;20.724;2023-07-22T12:55:26;4.33;;;3.63;;
78668;SDS011;67984;45.118;20.724;2023-07-22T13:05:27;4.77;;;3.83;;
78668;SDS011;67984;45.118;20.724;2023-07-22T13:15:28;4.30;;;3.90;;
78668;SDS011;67984;45.118;20.724;2023-07-22T13:25:28;4.30;;;3.90;;
78668;SDS011;67984;45.118;20.724;2023-07-22T13:35:30;7.18;;;4.03;;
78668;SDS011;67984;45.118;20.724;2023-07-22T13:45:31;5.33;;;4.90;;
78668;SDS011;67984;45.118;20.724;2023-07-22T13:55:32;4.38;;;3.97;;
78668;SDS011;67984;45.118;20.724;2023-07-22T14:05:33;4.78;;;4.18;;
78668;SDS011;67984;45.118;20.724;2023-07-22T14:15:34;6.07;;;3.57;;
78668;SDS011;67984;45.118;20.724;2023-07-22T14:35:36;4.03;;;3.72;;
78668;SDS011;67984;45.118;20.724;2023-07-22T14:45:37;4.87;;;4.47;;
78668;SDS011;67984;45.118;20.724;2023-07-22T14:55:38;4.40;;;3.73;;
78668;SDS011;67984;45.118;20.724;2023-07-22T15:05:39;2.75;;;2.55;;
78668;SDS011;67984;45.118;20.724;2023-07-22T15:15:40;4.77;;;3.57;;
78668;SDS011;67984;45.118;20.724;2023-07-22T15:25:40;5.27;;;3.50;;
78668;SDS011;67984;45.118;20.724;2023-07-22T15:35:41;4.10;;;3.70;;
78668;SDS011;67984;45.118;20.724;2023-07-22T15:45:42;2.13;;;1.90;;
78668;SDS011;67984;45.118;20.724;2023-07-22T15:55:43;4.70;;;4.23;;
78668;SDS011;67984;45.118;20.724;2023-07-22T16:05:43;4.73;;;3.53;;
78668;SDS011;67984;45.118;20.724;2023-07-22T16:15:44;3.90;;;3.60;;
78668;SDS011;67984;45.118;20.724;2023-07-22T16:25:45;5.50;;;4.30;;
78668;SDS011;67984;45.118;20.724;2023-07-22T16:35:45;4.10;;;3.67;;
78668;SDS011;67984;45.118;20.724;2023-07-22T16:45:46;7.20;;;4.17;;
78668;SDS011;67984;45.118;20.724;2023-07-22T16:55:47;5.80;;;5.27;;
78668;SDS011;67984;45.118;20.724;2023-07-22T17:05:48;5.77;;;3.23;;
78668;SDS011;67984;45.118;20.724;2023-07-22T17:15:48;12.52;;;8.10;;
78668;SDS011;67984;45.118;20.724;2023-07-22T17:25:49;12.60;;;5.43;;
78668;SDS011;67984;45.118;20.724;2023-07-22T17:35:50;6.30;;;5.00;;
78668;SDS011;67984;45.118;20.724;2023-07-22T17:45:51;9.80;;;4.80;;
78668;SDS011;67984;45.118;20.724;2023-07-22T17:55:52;12.37;;;7.37;;
78668;SDS011;67984;45.118;20.724;2023-07-22T18:05:52;6.30;;;4.67;;
78668;SDS011;67984;45.118;20.724;2023-07-22T18:15:53;8.90;;;6.27;;
78668;SDS011;67984;45.118;20.724;2023-07-22T18:25:54;9.87;;;7.60;;
78668;SDS011;67984;45.118;20.724;2023-07-22T18:35:54;10.75;;;8.57;;
78668;SDS011;67984;45.118;20.724;2023-07-22T18:45:55;11.13;;;8.85;;
78668;SDS011;67984;45.118;20.724;2023-07-22T18:55:56;8.87;;;8.00;;
78668;SDS011;67984;45.118;20.724;2023-07-22T19:05:57;14.73;;;9.23;;
78668;SDS011;67984;45.118;20.724;2023-07-22T19:15:58;11.32;;;10.10;;
78668;SDS011;67984;45.118;20.724;2023-07-22T19:25:58;10.30;;;9.30;;
78668;SDS011;67984;45.118;20.724;2023-07-22T19:36:08;10.43;;;9.43;;
78668;SDS011;67984;45.118;20.724;2023-07-22T19:46:13;11.98;;;9.45;;
78668;SDS011;67984;45.118;20.724;2023-07-22T19:56:15;10.85;;;9.43;;
78668;SDS011;67984;45.118;20.724;2023-07-22T20:06:15;10.55;;;9.05;;
78668;SDS011;67984;45.118;20.724;2023-07-22T20:16:16;11.13;;;9.23;;
78668;SDS011;67984;45.118;20.724;2023-07-22T20:26:17;9.50;;;8.13;;
78668;SDS011;67984;45.118;20.724;2023-07-22T20:36:18;8.90;;;8.10;;
78668;SDS011;67984;45.118;20.724;2023-07-22T20:46:19;13.13;;;7.97;;
78668;SDS011;67984;45.118;20.724;2023-07-22T20:56:20;14.90;;;8.57;;
78668;SDS011;67984;45.118;20.724;2023-07-22T21:06:20;10.45;;;9.55;;
78668;SDS011;67984;45.118;20.724;2023-07-22T21:16:21;11.57;;;9.60;;
78668;SDS011;67984;45.118;20.724;2023-07-22T21:26:22;14.33;;;10.37;;
78668;SDS011;67984;45.118;20.724;2023-07-22T21:36:22;15.30;;;11.60;;
78668;SDS011;67984;45.118;20.724;2023-07-22T21:46:23;11.82;;;10.18;;
78668;SDS011;67984;45.118;20.724;2023-07-22T21:56:24;8.30;;;7.27;;
78668;SDS011;67984;45.118;20.724;2023-07-22T22:06:25;9.25;;;5.72;;
78668;SDS011;67984;45.118;20.724;2023-07-22T22:16:26;12.17;;;6.63;;
78668;SDS011;67984;45.118;20.724;2023-07-22T22:26:26;5.03;;;2.03;;
78668;SDS011;67984;45.118;20.724;2023-07-22T22:36:28;3.92;;;3.63;;
78668;SDS011;67984;45.118;20.724;2023-07-22T22:46:29;6.23;;;3.77;;
78668;SDS011;67984;45.118;20.724;2023-07-22T22:56:30;8.43;;;4.43;;
78668;SDS011;67984;45.118;20.724;2023-07-22T23:06:31;4.73;;;4.13;;
78668;SDS011;67984;45.118;20.724;2023-07-22T23:16:31;4.13;;;3.38;;
78668;SDS011;67984;45.118;20.724;2023-07-22T23:26:32;2.57;;;2.00;;
78668;SDS011;67984;45.118;20.724;2023-07-22T23:36:33;3.28;;;2.97;;
78668;SDS011;67984;45.118;20.724;2023-07-22T23:46:34;4.87;;;3.97;;
78668;SDS011;67984;45.118;20.724;2023-07-22T23:56:35;3.10;;;2.42;;
